Aeroporto :
LOGIN :

Iscrizione | Disclaimer

   EN    FR    IT 

 










Sommario :    VFR   VFR Marginale   IFR   IFR Intensivo   IFR Molto Intensivo
Visibilità : 
Base nubi : 
>= 8 km
>= 3000ft
5 / 8 km
1000 / 3000 ft
1500m / 5 km
500 / 1000 ft
800 / 1500m
200 / 500 ft
< 800m
< 200 ft
Simboli :   Temporali  Nebbia  Neve Forte  Precipitazioni Forti  Vento > 20 kt
SIGMETs :   Varie  Temporali  Ghiacco  Turbolenza  Onda orograficha  Ceneri Vulcaniche






- Altitudine del aeroporto : 25 ft
- Codice IATA : QCY


EGXC - RAF Coningsby

ULTIMO METAR :
  • 061750Z 33013KT 9999 SCT028 SCT050 12/08 Q0997 RESHRA RMK BLU

METARs OBSOLETI :
  • 061650Z 33016KT 9999 BKN025 13/07 Q0996 RMK BLU
  • 061550Z 32020KT 9999 SCT025 SCT030 14/07 Q0994 RMK BLU

TAF TAF EGXC
Valido dal 06 a 18 ore il 07 a 12 ore UTC


061644Z 0618/0712 32015G25KT 9999 FEW022 SCT030
BECMG 0618/0621 30010KT
PROB30
TEMPO 0618/0620 7000 SHRA BKN022CB
PROB30
TEMPO 0706/0709 7000 RA SCT015
BECMG 0709/0712 BKN015
PROB40
TEMPO 0709/0712 7000 RA BKN010



MetMap, La meteo Aeronautica in un colpo d'occhio ! - Copyright ORBIFLY Dicembre 2007 - Disclaimer

ORBIFLY MET'MAP TEAM :

Programmazione e sviluppo : Alexandra Zaïnal
Concezione : Baudouin d'Aumeries
Aiuto per la programmazione : Marc-Olivier Méhu
Supporto tecnico e logistico : Manuel Goepfert
Aiuto per la traduzione : Arnaldo La Scala

Contatto : metmap@orbifly.com




FONTI E CREDITI :

   NOAA